High gust

Not for real navigation. The accuracy of this data is not assured See disclaimer for more information



ICAO NAME COUNTRY WIND Kt GUST Kt VIS m TEMP/DEW C BARO METAR
CWRU Solander Island Meteorological Canada 45 55 9999 5/0 29.92 CWRU 261200Z AUTO 12045G55KT 05/ RMK AO1 4PAST HR PRESFR 8059 PK WND 12055/1156 SLP987 P0002 T0048 5
ENBO Bodo Vi Norway 34 48 9999 3/1 29.68 ENBO 261220Z 28034G48KT 9999 VCSH FEW006 FEW015CB SCT035 03/01 Q1005 TEMPO 27025KT 0800 SHSNGS VV005
ESPA Lulea / Kallax Sweden 29 44 9999 6/-5 29.44 ESPA 261220Z 30029G44KT CAVOK 06/M05 Q0997
CWOB Brevoort Island Canada 33 44 9999 0/0 29.89 CWOB 261227Z AUTO 04033G44KT ////SM //// SCT022 SCT041 OVC060 ///// A2989
ENAN Andoya Norway 33 44 9999 2/0 29.41 ENAN 261220Z AUTO 30033G44KT //// R14///// FEW013/// SCT027/// BKN037/// 02/M00 Q0996

Show more